sensor_id;sensor_type;location;lat;lon;timestamp;P1;durP1;ratioP1;P2;durP2;ratioP2
72037;SDS011;59900;50.788;12.904;2022-11-21T00:00:59;6.55;;;2.63;;
72037;SDS011;59900;50.788;12.904;2022-11-21T00:03:24;8.90;;;3.30;;
72037;SDS011;59900;50.788;12.904;2022-11-21T00:05:50;6.70;;;2.60;;
72037;SDS011;59900;50.788;12.904;2022-11-21T00:08:16;5.13;;;2.97;;
72037;SDS011;59900;50.788;12.904;2022-11-21T00:10:43;5.55;;;2.90;;
72037;SDS011;59900;50.788;12.904;2022-11-21T00:13:16;5.53;;;2.85;;
72037;SDS011;59900;50.788;12.904;2022-11-21T00:15:43;6.22;;;2.85;;
72037;SDS011;59900;50.788;12.904;2022-11-21T00:18:09;6.90;;;2.80;;
72037;SDS011;59900;50.788;12.904;2022-11-21T00:20:36;4.57;;;2.70;;
72037;SDS011;59900;50.788;12.904;2022-11-21T00:23:02;4.60;;;2.43;;
72037;SDS011;59900;50.788;12.904;2022-11-21T00:25:27;4.85;;;2.13;;
72037;SDS011;59900;50.788;12.904;2022-11-21T00:27:53;4.17;;;2.50;;
72037;SDS011;59900;50.788;12.904;2022-11-21T00:30:18;5.90;;;2.60;;
72037;SDS011;59900;50.788;12.904;2022-11-21T00:32:43;5.43;;;2.60;;
72037;SDS011;59900;50.788;12.904;2022-11-21T00:35:09;5.43;;;2.80;;
72037;SDS011;59900;50.788;12.904;2022-11-21T00:37:34;4.70;;;2.60;;
72037;SDS011;59900;50.788;12.904;2022-11-21T00:39:59;4.97;;;2.30;;
72037;SDS011;59900;50.788;12.904;2022-11-21T00:42:25;4.35;;;2.20;;
72037;SDS011;59900;50.788;12.904;2022-11-21T00:44:50;4.07;;;2.03;;
72037;SDS011;59900;50.788;12.904;2022-11-21T00:47:15;4.40;;;2.53;;
72037;SDS011;59900;50.788;12.904;2022-11-21T00:49:41;3.27;;;1.80;;
72037;SDS011;59900;50.788;12.904;2022-11-21T00:52:06;3.97;;;2.27;;
72037;SDS011;59900;50.788;12.904;2022-11-21T00:54:31;3.20;;;2.10;;
72037;SDS011;59900;50.788;12.904;2022-11-21T00:56:57;3.20;;;1.83;;
72037;SDS011;59900;50.788;12.904;2022-11-21T00:59:22;4.27;;;1.97;;
72037;SDS011;59900;50.788;12.904;2022-11-21T01:01:47;2.90;;;1.50;;
72037;SDS011;59900;50.788;12.904;2022-11-21T01:04:12;2.83;;;2.00;;
72037;SDS011;59900;50.788;12.904;2022-11-21T01:06:38;3.03;;;1.47;;
72037;SDS011;59900;50.788;12.904;2022-11-21T01:09:03;2.63;;;1.53;;
72037;SDS011;59900;50.788;12.904;2022-11-21T01:11:29;3.00;;;1.47;;
72037;SDS011;59900;50.788;12.904;2022-11-21T01:13:54;2.47;;;1.53;;
72037;SDS011;59900;50.788;12.904;2022-11-21T01:16:21;2.92;;;1.60;;
72037;SDS011;59900;50.788;12.904;2022-11-21T01:18:48;3.50;;;1.50;;
72037;SDS011;59900;50.788;12.904;2022-11-21T01:21:21;2.13;;;1.60;;
72037;SDS011;59900;50.788;12.904;2022-11-21T01:23:48;3.03;;;1.77;;
72037;SDS011;59900;50.788;12.904;2022-11-21T01:26:15;2.60;;;1.30;;
72037;SDS011;59900;50.788;12.904;2022-11-21T01:28:42;2.95;;;1.70;;
72037;SDS011;59900;50.788;12.904;2022-11-21T01:31:08;3.23;;;2.00;;
72037;SDS011;59900;50.788;12.904;2022-11-21T01:33:36;2.45;;;1.30;;
72037;SDS011;59900;50.788;12.904;2022-11-21T01:36:05;2.80;;;1.40;;
72037;SDS011;59900;50.788;12.904;2022-11-21T01:38:31;2.65;;;1.75;;
72037;SDS011;59900;50.788;12.904;2022-11-21T01:40:57;2.53;;;1.40;;
72037;SDS011;59900;50.788;12.904;2022-11-21T01:43:22;2.33;;;1.20;;
72037;SDS011;59900;50.788;12.904;2022-11-21T01:48:16;2.53;;;1.87;;
72037;SDS011;59900;50.788;12.904;2022-11-21T01:50:41;3.05;;;1.75;;
72037;SDS011;59900;50.788;12.904;2022-11-21T01:53:06;2.63;;;1.40;;
72037;SDS011;59900;50.788;12.904;2022-11-21T01:55:32;2.80;;;1.80;;
72037;SDS011;59900;50.788;12.904;2022-11-21T01:57:58;3.65;;;1.88;;
72037;SDS011;59900;50.788;12.904;2022-11-21T02:00:24;2.57;;;1.67;;
72037;SDS011;59900;50.788;12.904;2022-11-21T02:02:53;2.03;;;1.10;;
72037;SDS011;59900;50.788;12.904;2022-11-21T02:05:22;3.00;;;1.60;;
72037;SDS011;59900;50.788;12.904;2022-11-21T02:07:52;2.50;;;1.20;;
72037;SDS011;59900;50.788;12.904;2022-11-21T02:10:21;2.40;;;1.50;;
72037;SDS011;59900;50.788;12.904;2022-11-21T02:12:48;2.50;;;1.65;;
72037;SDS011;59900;50.788;12.904;2022-11-21T02:15:16;2.63;;;1.67;;
72037;SDS011;59900;50.788;12.904;2022-11-21T02:17:43;2.58;;;1.42;;
72037;SDS011;59900;50.788;12.904;2022-11-21T02:20:09;2.67;;;1.30;;
72037;SDS011;59900;50.788;12.904;2022-11-21T02:25:37;3.58;;;1.38;;
72037;SDS011;59900;50.788;12.904;2022-11-21T02:28:06;2.90;;;1.67;;
72037;SDS011;59900;50.788;12.904;2022-11-21T02:30:43;2.97;;;1.60;;
72037;SDS011;59900;50.788;12.904;2022-11-21T02:33:09;4.33;;;1.77;;
72037;SDS011;59900;50.788;12.904;2022-11-21T02:35:35;5.15;;;2.00;;
72037;SDS011;59900;50.788;12.904;2022-11-21T02:38:02;3.73;;;1.93;;
72037;SDS011;59900;50.788;12.904;2022-11-21T02:40:31;4.35;;;2.20;;
72037;SDS011;59900;50.788;12.904;2022-11-21T02:43:09;4.80;;;2.30;;
72037;SDS011;59900;50.788;12.904;2022-11-21T02:45:47;10.95;;;2.15;;
72037;SDS011;59900;50.788;12.904;2022-11-21T02:48:13;4.03;;;2.30;;
72037;SDS011;59900;50.788;12.904;2022-11-21T02:50:39;3.67;;;1.93;;
72037;SDS011;59900;50.788;12.904;2022-11-21T02:53:06;5.38;;;2.20;;
72037;SDS011;59900;50.788;12.904;2022-11-21T02:55:34;4.75;;;2.45;;
72037;SDS011;59900;50.788;12.904;2022-11-21T02:57:59;5.47;;;2.50;;
72037;SDS011;59900;50.788;12.904;2022-11-21T03:00:25;4.33;;;2.10;;
72037;SDS011;59900;50.788;12.904;2022-11-21T03:02:50;4.87;;;2.13;;
72037;SDS011;59900;50.788;12.904;2022-11-21T03:05:17;6.13;;;2.20;;
72037;SDS011;59900;50.788;12.904;2022-11-21T03:07:44;4.75;;;2.30;;
72037;SDS011;59900;50.788;12.904;2022-11-21T03:10:10;6.45;;;2.30;;
72037;SDS011;59900;50.788;12.904;2022-11-21T03:12:36;4.63;;;2.30;;
72037;SDS011;59900;50.788;12.904;2022-11-21T03:15:03;4.20;;;2.38;;
72037;SDS011;59900;50.788;12.904;2022-11-21T03:17:30;4.30;;;2.50;;
72037;SDS011;59900;50.788;12.904;2022-11-21T03:19:55;3.00;;;1.70;;
72037;SDS011;59900;50.788;12.904;2022-11-21T03:22:21;3.80;;;1.73;;
72037;SDS011;59900;50.788;12.904;2022-11-21T03:24:46;4.27;;;1.90;;
72037;SDS011;59900;50.788;12.904;2022-11-21T03:27:11;5.17;;;2.17;;
72037;SDS011;59900;50.788;12.904;2022-11-21T03:29:36;3.90;;;1.80;;
72037;SDS011;59900;50.788;12.904;2022-11-21T03:32:02;4.10;;;2.00;;
72037;SDS011;59900;50.788;12.904;2022-11-21T03:34:27;3.33;;;1.67;;
72037;SDS011;59900;50.788;12.904;2022-11-21T03:36:52;4.40;;;2.13;;
72037;SDS011;59900;50.788;12.904;2022-11-21T03:39:18;2.83;;;1.53;;
72037;SDS011;59900;50.788;12.904;2022-11-21T03:41:43;3.20;;;1.60;;
72037;SDS011;59900;50.788;12.904;2022-11-21T03:44:09;3.73;;;1.77;;
72037;SDS011;59900;50.788;12.904;2022-11-21T03:46:36;3.63;;;1.50;;
72037;SDS011;59900;50.788;12.904;2022-11-21T03:49:03;3.53;;;1.50;;
72037;SDS011;59900;50.788;12.904;2022-11-21T03:51:29;3.78;;;1.45;;
72037;SDS011;59900;50.788;12.904;2022-11-21T03:53:54;3.40;;;1.30;;
72037;SDS011;59900;50.788;12.904;2022-11-21T03:56:20;3.70;;;2.23;;
72037;SDS011;59900;50.788;12.904;2022-11-21T03:58:45;2.65;;;1.30;;
72037;SDS011;59900;50.788;12.904;2022-11-21T04:01:11;2.90;;;1.53;;
72037;SDS011;59900;50.788;12.904;2022-11-21T04:03:40;3.15;;;1.48;;
72037;SDS011;59900;50.788;12.904;2022-11-21T04:06:06;3.08;;;1.60;;
72037;SDS011;59900;50.788;12.904;2022-11-21T04:08:32;5.03;;;1.57;;
72037;SDS011;59900;50.788;12.904;2022-11-21T04:10:57;2.90;;;1.60;;
72037;SDS011;59900;50.788;12.904;2022-11-21T04:13:23;2.50;;;1.20;;
72037;SDS011;59900;50.788;12.904;2022-11-21T04:15:48;3.80;;;1.73;;
72037;SDS011;59900;50.788;12.904;2022-11-21T04:18:13;3.30;;;1.60;;
72037;SDS011;59900;50.788;12.904;2022-11-21T04:20:39;3.90;;;1.60;;
72037;SDS011;59900;50.788;12.904;2022-11-21T04:23:05;3.70;;;1.77;;
72037;SDS011;59900;50.788;12.904;2022-11-21T04:25:31;3.58;;;1.35;;
72037;SDS011;59900;50.788;12.904;2022-11-21T04:27:57;3.28;;;1.95;;
72037;SDS011;59900;50.788;12.904;2022-11-21T04:30:23;3.15;;;1.50;;
72037;SDS011;59900;50.788;12.904;2022-11-21T04:32:55;4.10;;;1.90;;
72037;SDS011;59900;50.788;12.904;2022-11-21T04:35:21;3.47;;;1.38;;
72037;SDS011;59900;50.788;12.904;2022-11-21T04:37:48;2.97;;;1.52;;
72037;SDS011;59900;50.788;12.904;2022-11-21T04:40:13;4.30;;;1.50;;
72037;SDS011;59900;50.788;12.904;2022-11-21T04:42:39;6.50;;;1.70;;
72037;SDS011;59900;50.788;12.904;2022-11-21T04:45:08;3.88;;;2.03;;
72037;SDS011;59900;50.788;12.904;2022-11-21T04:47:37;3.40;;;1.50;;
72037;SDS011;59900;50.788;12.904;2022-11-21T04:50:03;3.20;;;1.52;;
72037;SDS011;59900;50.788;12.904;2022-11-21T04:52:29;3.92;;;1.95;;
72037;SDS011;59900;50.788;12.904;2022-11-21T04:54:55;3.93;;;1.80;;
72037;SDS011;59900;50.788;12.904;2022-11-21T04:57:20;2.43;;;1.20;;
72037;SDS011;59900;50.788;12.904;2022-11-21T04:59:46;4.10;;;1.80;;
72037;SDS011;59900;50.788;12.904;2022-11-21T05:02:11;3.23;;;1.60;;
72037;SDS011;59900;50.788;12.904;2022-11-21T05:04:36;4.13;;;1.70;;
72037;SDS011;59900;50.788;12.904;2022-11-21T05:07:01;3.63;;;2.07;;
72037;SDS011;59900;50.788;12.904;2022-11-21T05:09:27;7.57;;;2.20;;
72037;SDS011;59900;50.788;12.904;2022-11-21T05:11:52;4.23;;;2.10;;
72037;SDS011;59900;50.788;12.904;2022-11-21T05:14:36;4.38;;;2.25;;
72037;SDS011;59900;50.788;12.904;2022-11-21T05:17:01;4.47;;;1.70;;
72037;SDS011;59900;50.788;12.904;2022-11-21T05:19:26;4.50;;;2.00;;
72037;SDS011;59900;50.788;12.904;2022-11-21T05:21:51;3.53;;;2.00;;
72037;SDS011;59900;50.788;12.904;2022-11-21T05:24:17;2.77;;;1.40;;
72037;SDS011;59900;50.788;12.904;2022-11-21T05:26:43;4.07;;;2.00;;
72037;SDS011;59900;50.788;12.904;2022-11-21T05:29:08;3.40;;;1.80;;
72037;SDS011;59900;50.788;12.904;2022-11-21T05:31:33;4.87;;;1.97;;
72037;SDS011;59900;50.788;12.904;2022-11-21T05:33:58;3.23;;;1.63;;
72037;SDS011;59900;50.788;12.904;2022-11-21T05:36:24;4.83;;;2.00;;
72037;SDS011;59900;50.788;12.904;2022-11-21T05:38:49;5.43;;;2.13;;
72037;SDS011;59900;50.788;12.904;2022-11-21T05:41:14;5.17;;;2.33;;
72037;SDS011;59900;50.788;12.904;2022-11-21T05:43:39;4.30;;;2.03;;
72037;SDS011;59900;50.788;12.904;2022-11-21T05:46:11;4.38;;;1.95;;
72037;SDS011;59900;50.788;12.904;2022-11-21T05:48:37;3.43;;;2.07;;
72037;SDS011;59900;50.788;12.904;2022-11-21T05:51:03;4.68;;;1.80;;
72037;SDS011;59900;50.788;12.904;2022-11-21T05:53:29;2.53;;;1.47;;
72037;SDS011;59900;50.788;12.904;2022-11-21T05:55:54;3.33;;;1.70;;
72037;SDS011;59900;50.788;12.904;2022-11-21T05:58:19;4.27;;;1.90;;
72037;SDS011;59900;50.788;12.904;2022-11-21T06:00:44;3.47;;;1.93;;
72037;SDS011;59900;50.788;12.904;2022-11-21T06:03:10;4.47;;;1.80;;
72037;SDS011;59900;50.788;12.904;2022-11-21T06:05:50;3.80;;;1.83;;
72037;SDS011;59900;50.788;12.904;2022-11-21T06:08:16;3.43;;;2.00;;
72037;SDS011;59900;50.788;12.904;2022-11-21T06:10:41;3.57;;;2.10;;
72037;SDS011;59900;50.788;12.904;2022-11-21T06:13:07;4.07;;;1.60;;
72037;SDS011;59900;50.788;12.904;2022-11-21T06:15:46;4.63;;;1.90;;
72037;SDS011;59900;50.788;12.904;2022-11-21T06:18:12;3.70;;;2.15;;
72037;SDS011;59900;50.788;12.904;2022-11-21T06:20:37;3.17;;;1.80;;
72037;SDS011;59900;50.788;12.904;2022-11-21T06:23:02;3.17;;;1.77;;
72037;SDS011;59900;50.788;12.904;2022-11-21T06:25:28;3.83;;;1.93;;
72037;SDS011;59900;50.788;12.904;2022-11-21T06:27:53;3.90;;;1.80;;
72037;SDS011;59900;50.788;12.904;2022-11-21T06:30:18;3.97;;;1.90;;
72037;SDS011;59900;50.788;12.904;2022-11-21T06:32:43;4.80;;;2.00;;
72037;SDS011;59900;50.788;12.904;2022-11-21T06:35:09;6.03;;;3.20;;
72037;SDS011;59900;50.788;12.904;2022-11-21T06:37:34;7.50;;;3.63;;
72037;SDS011;59900;50.788;12.904;2022-11-21T06:39:59;7.37;;;3.27;;
72037;SDS011;59900;50.788;12.904;2022-11-21T06:42:24;7.80;;;3.93;;
72037;SDS011;59900;50.788;12.904;2022-11-21T06:44:50;9.77;;;4.27;;
72037;SDS011;59900;50.788;12.904;2022-11-21T06:47:15;8.77;;;4.40;;
72037;SDS011;59900;50.788;12.904;2022-11-21T06:49:40;10.33;;;4.40;;
72037;SDS011;59900;50.788;12.904;2022-11-21T06:52:05;9.30;;;4.33;;
72037;SDS011;59900;50.788;12.904;2022-11-21T06:54:31;10.47;;;4.67;;
72037;SDS011;59900;50.788;12.904;2022-11-21T06:56:56;10.70;;;4.70;;
72037;SDS011;59900;50.788;12.904;2022-11-21T06:59:22;10.57;;;5.32;;
72037;SDS011;59900;50.788;12.904;2022-11-21T07:01:48;10.53;;;5.00;;
72037;SDS011;59900;50.788;12.904;2022-11-21T07:04:13;10.60;;;4.50;;
72037;SDS011;59900;50.788;12.904;2022-11-21T07:06:38;8.37;;;4.27;;
72037;SDS011;59900;50.788;12.904;2022-11-21T07:09:04;9.80;;;4.63;;
72037;SDS011;59900;50.788;12.904;2022-11-21T07:11:29;8.93;;;3.93;;
72037;SDS011;59900;50.788;12.904;2022-11-21T07:13:54;10.93;;;4.43;;
72037;SDS011;59900;50.788;12.904;2022-11-21T07:16:20;9.03;;;4.57;;
72037;SDS011;59900;50.788;12.904;2022-11-21T07:18:46;10.37;;;4.60;;
72037;SDS011;59900;50.788;12.904;2022-11-21T07:21:11;9.13;;;4.30;;
72037;SDS011;59900;50.788;12.904;2022-11-21T07:23:36;8.47;;;4.63;;
72037;SDS011;59900;50.788;12.904;2022-11-21T07:26:05;9.37;;;4.40;;
72037;SDS011;59900;50.788;12.904;2022-11-21T07:28:31;9.95;;;4.80;;
72037;SDS011;59900;50.788;12.904;2022-11-21T07:30:57;7.83;;;4.20;;
72037;SDS011;59900;50.788;12.904;2022-11-21T07:33:25;9.55;;;4.50;;
72037;SDS011;59900;50.788;12.904;2022-11-21T07:35:50;8.75;;;4.80;;
72037;SDS011;59900;50.788;12.904;2022-11-21T07:38:16;8.83;;;4.40;;
72037;SDS011;59900;50.788;12.904;2022-11-21T07:40:41;9.33;;;4.83;;
72037;SDS011;59900;50.788;12.904;2022-11-21T07:43:07;8.83;;;4.33;;
72037;SDS011;59900;50.788;12.904;2022-11-21T07:45:33;8.95;;;4.95;;
72037;SDS011;59900;50.788;12.904;2022-11-21T07:48:01;11.07;;;5.03;;
72037;SDS011;59900;50.788;12.904;2022-11-21T07:50:28;9.18;;;4.72;;
72037;SDS011;59900;50.788;12.904;2022-11-21T07:53:01;10.10;;;4.78;;
72037;SDS011;59900;50.788;12.904;2022-11-21T07:55:27;8.43;;;4.68;;
72037;SDS011;59900;50.788;12.904;2022-11-21T07:58:00;10.53;;;5.03;;
72037;SDS011;59900;50.788;12.904;2022-11-21T08:00:28;10.50;;;5.25;;
72037;SDS011;59900;50.788;12.904;2022-11-21T08:02:54;12.10;;;4.72;;
72037;SDS011;59900;50.788;12.904;2022-11-21T08:05:20;10.00;;;4.63;;
72037;SDS011;59900;50.788;12.904;2022-11-21T08:07:46;10.77;;;5.57;;
72037;SDS011;59900;50.788;12.904;2022-11-21T08:10:11;11.87;;;5.77;;
72037;SDS011;59900;50.788;12.904;2022-11-21T08:12:36;13.40;;;5.87;;
72037;SDS011;59900;50.788;12.904;2022-11-21T08:15:02;13.60;;;6.57;;
72037;SDS011;59900;50.788;12.904;2022-11-21T08:17:28;12.88;;;6.25;;
72037;SDS011;59900;50.788;12.904;2022-11-21T08:19:54;15.77;;;6.87;;
72037;SDS011;59900;50.788;12.904;2022-11-21T08:22:19;13.43;;;6.33;;
72037;SDS011;59900;50.788;12.904;2022-11-21T08:24:45;15.07;;;6.57;;
72037;SDS011;59900;50.788;12.904;2022-11-21T08:27:10;17.20;;;7.17;;
72037;SDS011;59900;50.788;12.904;2022-11-21T08:29:35;14.17;;;7.13;;
72037;SDS011;59900;50.788;12.904;2022-11-21T08:32:00;16.90;;;7.87;;
72037;SDS011;59900;50.788;12.904;2022-11-21T08:34:26;18.30;;;8.20;;
72037;SDS011;59900;50.788;12.904;2022-11-21T08:36:51;15.87;;;7.30;;
72037;SDS011;59900;50.788;12.904;2022-11-21T08:39:17;20.37;;;8.27;;
72037;SDS011;59900;50.788;12.904;2022-11-21T08:41:42;17.60;;;8.00;;
72037;SDS011;59900;50.788;12.904;2022-11-21T08:44:26;19.33;;;7.80;;
72037;SDS011;59900;50.788;12.904;2022-11-21T08:46:52;18.83;;;8.93;;
72037;SDS011;59900;50.788;12.904;2022-11-21T08:49:18;16.67;;;7.40;;
72037;SDS011;59900;50.788;12.904;2022-11-21T08:51:44;17.03;;;7.70;;
72037;SDS011;59900;50.788;12.904;2022-11-21T08:54:13;16.23;;;7.57;;
72037;SDS011;59900;50.788;12.904;2022-11-21T08:56:38;17.63;;;7.67;;
72037;SDS011;59900;50.788;12.904;2022-11-21T08:59:03;20.67;;;8.97;;
72037;SDS011;59900;50.788;12.904;2022-11-21T09:01:29;19.03;;;8.07;;
72037;SDS011;59900;50.788;12.904;2022-11-21T09:03:54;19.63;;;8.13;;
72037;SDS011;59900;50.788;12.904;2022-11-21T09:06:19;17.00;;;7.60;;
72037;SDS011;59900;50.788;12.904;2022-11-21T09:08:44;16.20;;;7.73;;
72037;SDS011;59900;50.788;12.904;2022-11-21T09:11:10;18.60;;;7.60;;
72037;SDS011;59900;50.788;12.904;2022-11-21T09:13:35;18.43;;;8.53;;
72037;SDS011;59900;50.788;12.904;2022-11-21T09:16:01;16.27;;;7.37;;
72037;SDS011;59900;50.788;12.904;2022-11-21T09:18:45;19.23;;;8.57;;
72037;SDS011;59900;50.788;12.904;2022-11-21T09:21:14;18.37;;;8.93;;
72037;SDS011;59900;50.788;12.904;2022-11-21T09:23:40;18.88;;;9.13;;
72037;SDS011;59900;50.788;12.904;2022-11-21T09:26:05;18.57;;;8.50;;
72037;SDS011;59900;50.788;12.904;2022-11-21T09:28:30;24.33;;;9.23;;
72037;SDS011;59900;50.788;12.904;2022-11-21T09:30:55;21.97;;;8.87;;
72037;SDS011;59900;50.788;12.904;2022-11-21T09:33:21;22.53;;;9.00;;
72037;SDS011;59900;50.788;12.904;2022-11-21T09:35:46;22.73;;;9.83;;
72037;SDS011;59900;50.788;12.904;2022-11-21T09:38:11;24.67;;;10.10;;
72037;SDS011;59900;50.788;12.904;2022-11-21T09:40:37;24.03;;;10.13;;
72037;SDS011;59900;50.788;12.904;2022-11-21T09:45:40;26.20;;;10.43;;
72037;SDS011;59900;50.788;12.904;2022-11-21T09:48:12;23.60;;;9.40;;
72037;SDS011;59900;50.788;12.904;2022-11-21T09:50:46;28.63;;;9.85;;
72037;SDS011;59900;50.788;12.904;2022-11-21T09:53:16;27.73;;;10.07;;
72037;SDS011;59900;50.788;12.904;2022-11-21T09:55:53;26.95;;;11.27;;
72037;SDS011;59900;50.788;12.904;2022-11-21T09:58:29;30.17;;;11.27;;
72037;SDS011;59900;50.788;12.904;2022-11-21T10:00:59;26.83;;;10.43;;
72037;SDS011;59900;50.788;12.904;2022-11-21T10:03:29;26.63;;;10.77;;
72037;SDS011;59900;50.788;12.904;2022-11-21T10:06:00;29.17;;;10.63;;
72037;SDS011;59900;50.788;12.904;2022-11-21T10:08:33;31.95;;;11.45;;
72037;SDS011;59900;50.788;12.904;2022-11-21T10:14:40;27.05;;;10.50;;
72037;SDS011;59900;50.788;12.904;2022-11-21T10:20:25;27.88;;;10.32;;
72037;SDS011;59900;50.788;12.904;2022-11-21T10:23:00;28.50;;;11.43;;
72037;SDS011;59900;50.788;12.904;2022-11-21T10:25:29;21.17;;;8.67;;
72037;SDS011;59900;50.788;12.904;2022-11-21T10:28:08;19.23;;;7.95;;
72037;SDS011;59900;50.788;12.904;2022-11-21T10:30:41;21.00;;;8.20;;
72037;SDS011;59900;50.788;12.904;2022-11-21T10:33:14;20.90;;;8.57;;
72037;SDS011;59900;50.788;12.904;2022-11-21T10:35:50;18.63;;;8.07;;
72037;SDS011;59900;50.788;12.904;2022-11-21T10:38:23;22.50;;;9.33;;
72037;SDS011;59900;50.788;12.904;2022-11-21T10:40:50;21.95;;;8.60;;
72037;SDS011;59900;50.788;12.904;2022-11-21T10:46:16;22.73;;;9.23;;
72037;SDS011;59900;50.788;12.904;2022-11-21T10:48:41;23.30;;;9.53;;
72037;SDS011;59900;50.788;12.904;2022-11-21T10:51:26;23.13;;;9.40;;
72037;SDS011;59900;50.788;12.904;2022-11-21T10:54:02;21.90;;;8.68;;
72037;SDS011;59900;50.788;12.904;2022-11-21T10:56:50;19.60;;;8.30;;
72037;SDS011;59900;50.788;12.904;2022-11-21T10:59:22;19.27;;;7.60;;
72037;SDS011;59900;50.788;12.904;2022-11-21T11:01:56;17.52;;;7.38;;
72037;SDS011;59900;50.788;12.904;2022-11-21T11:04:27;15.93;;;7.13;;
72037;SDS011;59900;50.788;12.904;2022-11-21T11:06:57;14.90;;;6.75;;
72037;SDS011;59900;50.788;12.904;2022-11-21T11:09:46;14.80;;;6.50;;
72037;SDS011;59900;50.788;12.904;2022-11-21T11:12:22;15.57;;;6.63;;
72037;SDS011;59900;50.788;12.904;2022-11-21T11:18:18;14.88;;;6.38;;
72037;SDS011;59900;50.788;12.904;2022-11-21T11:20:47;13.73;;;6.20;;
72037;SDS011;59900;50.788;12.904;2022-11-21T11:23:31;13.90;;;5.90;;
72037;SDS011;59900;50.788;12.904;2022-11-21T11:25:57;14.05;;;5.28;;
72037;SDS011;59900;50.788;12.904;2022-11-21T11:28:32;15.80;;;6.20;;
72037;SDS011;59900;50.788;12.904;2022-11-21T11:31:00;17.13;;;7.32;;
72037;SDS011;59900;50.788;12.904;2022-11-21T11:33:26;14.37;;;6.77;;
72037;SDS011;59900;50.788;12.904;2022-11-21T11:35:52;16.88;;;6.93;;
72037;SDS011;59900;50.788;12.904;2022-11-21T11:38:22;15.35;;;6.80;;
72037;SDS011;59900;50.788;12.904;2022-11-21T11:40:50;18.67;;;7.57;;
72037;SDS011;59900;50.788;12.904;2022-11-21T11:43:28;19.55;;;7.13;;
72037;SDS011;59900;50.788;12.904;2022-11-21T11:49:43;21.40;;;8.75;;
72037;SDS011;59900;50.788;12.904;2022-11-21T11:52:37;21.55;;;8.57;;
72037;SDS011;59900;50.788;12.904;2022-11-21T11:55:14;23.47;;;9.47;;
72037;SDS011;59900;50.788;12.904;2022-11-21T11:57:45;23.67;;;9.43;;
72037;SDS011;59900;50.788;12.904;2022-11-21T12:03:00;26.80;;;10.52;;
72037;SDS011;59900;50.788;12.904;2022-11-21T12:05:32;28.05;;;11.23;;
72037;SDS011;59900;50.788;12.904;2022-11-21T12:08:03;27.93;;;10.47;;
72037;SDS011;59900;50.788;12.904;2022-11-21T12:10:40;33.38;;;12.13;;
72037;SDS011;59900;50.788;12.904;2022-11-21T12:13:51;29.02;;;10.75;;
72037;SDS011;59900;50.788;12.904;2022-11-21T12:16:20;30.58;;;11.27;;
72037;SDS011;59900;50.788;12.904;2022-11-21T12:18:55;29.52;;;11.15;;
72037;SDS011;59900;50.788;12.904;2022-11-21T12:21:27;30.57;;;11.37;;
72037;SDS011;59900;50.788;12.904;2022-11-21T12:23:56;28.42;;;10.13;;
72037;SDS011;59900;50.788;12.904;2022-11-21T12:26:28;28.55;;;10.15;;
72037;SDS011;59900;50.788;12.904;2022-11-21T12:32:03;31.48;;;11.00;;
72037;SDS011;59900;50.788;12.904;2022-11-21T12:37:44;28.25;;;10.95;;
72037;SDS011;59900;50.788;12.904;2022-11-21T12:46:04;26.60;;;10.23;;
72037;SDS011;59900;50.788;12.904;2022-11-21T12:48:49;28.37;;;9.90;;
72037;SDS011;59900;50.788;12.904;2022-11-21T12:55:08;23.60;;;9.65;;
72037;SDS011;59900;50.788;12.904;2022-11-21T12:57:55;24.85;;;10.48;;
72037;SDS011;59900;50.788;12.904;2022-11-21T13:05:57;22.65;;;10.00;;
72037;SDS011;59900;50.788;12.904;2022-11-21T13:08:24;24.30;;;9.45;;
72037;SDS011;59900;50.788;12.904;2022-11-21T13:11:06;23.30;;;10.15;;
72037;SDS011;59900;50.788;12.904;2022-11-21T13:14:30;28.45;;;11.25;;
72037;SDS011;59900;50.788;12.904;2022-11-21T13:17:03;115.30;;;42.63;;
72037;SDS011;59900;50.788;12.904;2022-11-21T13:25:08;24.58;;;9.55;;
72037;SDS011;59900;50.788;12.904;2022-11-21T13:27:39;24.60;;;9.88;;
72037;SDS011;59900;50.788;12.904;2022-11-21T13:32:41;28.20;;;10.53;;
72037;SDS011;59900;50.788;12.904;2022-11-21T13:48:04;23.20;;;9.65;;
72037;SDS011;59900;50.788;12.904;2022-11-21T13:50:47;18.60;;;8.52;;
72037;SDS011;59900;50.788;12.904;2022-11-21T13:55:58;23.67;;;10.90;;
72037;SDS011;59900;50.788;12.904;2022-11-21T13:58:43;25.40;;;11.90;;
72037;SDS011;59900;50.788;12.904;2022-11-21T14:07:24;27.45;;;10.50;;
72037;SDS011;59900;50.788;12.904;2022-11-21T14:09:50;23.45;;;9.65;;
72037;SDS011;59900;50.788;12.904;2022-11-21T14:12:21;28.63;;;12.83;;
72037;SDS011;59900;50.788;12.904;2022-11-21T14:17:44;28.52;;;11.90;;
72037;SDS011;59900;50.788;12.904;2022-11-21T14:20:17;26.73;;;11.02;;
72037;SDS011;59900;50.788;12.904;2022-11-21T14:22:50;25.05;;;10.75;;
72037;SDS011;59900;50.788;12.904;2022-11-21T14:28:11;26.05;;;11.32;;
72037;SDS011;59900;50.788;12.904;2022-11-21T14:30:41;27.45;;;10.85;;
72037;SDS011;59900;50.788;12.904;2022-11-21T14:38:34;29.10;;;12.77;;
72037;SDS011;59900;50.788;12.904;2022-11-21T14:43:48;27.23;;;12.05;;
72037;SDS011;59900;50.788;12.904;2022-11-21T14:46:28;30.77;;;13.25;;
72037;SDS011;59900;50.788;12.904;2022-11-21T14:48:53;28.77;;;10.90;;
72037;SDS011;59900;50.788;12.904;2022-11-21T14:51:22;26.60;;;12.40;;
72037;SDS011;59900;50.788;12.904;2022-11-21T14:53:48;27.67;;;12.65;;
72037;SDS011;59900;50.788;12.904;2022-11-21T14:56:19;29.30;;;12.70;;
72037;SDS011;59900;50.788;12.904;2022-11-21T14:58:46;26.88;;;11.65;;
72037;SDS011;59900;50.788;12.904;2022-11-21T15:01:18;44.87;;;18.50;;
72037;SDS011;59900;50.788;12.904;2022-11-21T15:04:02;24.80;;;10.70;;
72037;SDS011;59900;50.788;12.904;2022-11-21T15:06:30;20.08;;;8.70;;
72037;SDS011;59900;50.788;12.904;2022-11-21T15:08:57;21.05;;;9.40;;
72037;SDS011;59900;50.788;12.904;2022-11-21T15:11:46;23.70;;;10.27;;
72037;SDS011;59900;50.788;12.904;2022-11-21T15:17:06;18.30;;;8.00;;
72037;SDS011;59900;50.788;12.904;2022-11-21T15:19:36;22.25;;;9.02;;
72037;SDS011;59900;50.788;12.904;2022-11-21T15:22:02;18.90;;;8.57;;
72037;SDS011;59900;50.788;12.904;2022-11-21T15:24:30;21.27;;;9.20;;
72037;SDS011;59900;50.788;12.904;2022-11-21T15:27:21;19.55;;;8.63;;
72037;SDS011;59900;50.788;12.904;2022-11-21T15:32:58;58.83;;;22.23;;
72037;SDS011;59900;50.788;12.904;2022-11-21T15:38:43;22.08;;;11.05;;
72037;SDS011;59900;50.788;12.904;2022-11-21T15:43:39;20.23;;;9.57;;
72037;SDS011;59900;50.788;12.904;2022-11-21T15:48:39;33.93;;;13.03;;
72037;SDS011;59900;50.788;12.904;2022-11-21T15:51:04;23.77;;;10.40;;
72037;SDS011;59900;50.788;12.904;2022-11-21T15:53:30;19.90;;;9.00;;
72037;SDS011;59900;50.788;12.904;2022-11-21T15:55:55;16.90;;;8.80;;
72037;SDS011;59900;50.788;12.904;2022-11-21T15:58:20;17.60;;;8.43;;
72037;SDS011;59900;50.788;12.904;2022-11-21T16:00:45;21.87;;;9.17;;
72037;SDS011;59900;50.788;12.904;2022-11-21T16:03:11;19.03;;;8.47;;
72037;SDS011;59900;50.788;12.904;2022-11-21T16:05:36;19.07;;;10.13;;
72037;SDS011;59900;50.788;12.904;2022-11-21T16:08:02;18.48;;;9.57;;
72037;SDS011;59900;50.788;12.904;2022-11-21T16:10:29;18.50;;;8.73;;
72037;SDS011;59900;50.788;12.904;2022-11-21T16:12:54;21.80;;;10.07;;
72037;SDS011;59900;50.788;12.904;2022-11-21T16:15:20;18.53;;;8.93;;
72037;SDS011;59900;50.788;12.904;2022-11-21T16:17:45;21.07;;;9.30;;
72037;SDS011;59900;50.788;12.904;2022-11-21T16:20:10;14.63;;;8.13;;